sensor_id;sensor_type;location;lat;lon;timestamp;temperature;humidity
44271;DHT22;29963;44.594;11.368;2023-03-31T00:01:11;15.30;99.90
44271;DHT22;29963;44.594;11.368;2023-03-31T00:03:37;15.20;99.90
44271;DHT22;29963;44.594;11.368;2023-03-31T00:06:10;15.20;99.90
44271;DHT22;29963;44.594;11.368;2023-03-31T00:08:37;15.20;99.90
44271;DHT22;29963;44.594;11.368;2023-03-31T00:11:05;15.10;99.90
44271;DHT22;29963;44.594;11.368;2023-03-31T00:13:35;15.20;99.90
44271;DHT22;29963;44.594;11.368;2023-03-31T00:16:06;15.20;99.90
44271;DHT22;29963;44.594;11.368;2023-03-31T00:18:33;15.20;99.90
44271;DHT22;29963;44.594;11.368;2023-03-31T00:23:32;15.20;99.90
44271;DHT22;29963;44.594;11.368;2023-03-31T00:26:01;15.20;99.90
44271;DHT22;29963;44.594;11.368;2023-03-31T00:28:26;15.20;99.90
44271;DHT22;29963;44.594;11.368;2023-03-31T00:30:52;15.20;99.90
44271;DHT22;29963;44.594;11.368;2023-03-31T00:33:17;15.20;99.90
44271;DHT22;29963;44.594;11.368;2023-03-31T00:35:43;15.30;99.90
44271;DHT22;29963;44.594;11.368;2023-03-31T00:38:10;15.20;99.90
44271;DHT22;29963;44.594;11.368;2023-03-31T00:40:44;15.20;99.90
44271;DHT22;29963;44.594;11.368;2023-03-31T00:43:25;15.20;99.90
44271;DHT22;29963;44.594;11.368;2023-03-31T00:45:51;15.30;99.90
44271;DHT22;29963;44.594;11.368;2023-03-31T00:48:18;15.20;99.90
44271;DHT22;29963;44.594;11.368;2023-03-31T00:50:53;15.20;99.90
44271;DHT22;29963;44.594;11.368;2023-03-31T00:53:24;15.20;99.90
44271;DHT22;29963;44.594;11.368;2023-03-31T00:55:54;15.20;99.90
44271;DHT22;29963;44.594;11.368;2023-03-31T00:58:22;15.20;99.90
44271;DHT22;29963;44.594;11.368;2023-03-31T01:00:55;15.10;99.90
44271;DHT22;29963;44.594;11.368;2023-03-31T01:03:22;15.10;99.90
44271;DHT22;29963;44.594;11.368;2023-03-31T01:05:54;15.10;99.90
44271;DHT22;29963;44.594;11.368;2023-03-31T01:08:24;15.10;99.90
44271;DHT22;29963;44.594;11.368;2023-03-31T01:10:57;15.10;99.90
44271;DHT22;29963;44.594;11.368;2023-03-31T01:13:24;15.10;99.90
44271;DHT22;29963;44.594;11.368;2023-03-31T01:15:51;15.10;99.90
44271;DHT22;29963;44.594;11.368;2023-03-31T01:18:17;15.10;99.90
44271;DHT22;29963;44.594;11.368;2023-03-31T01:46:00;14.90;99.90
44271;DHT22;29963;44.594;11.368;2023-03-31T01:51:33;14.80;99.90
44271;DHT22;29963;44.594;11.368;2023-03-31T01:56:40;14.70;99.90
44271;DHT22;29963;44.594;11.368;2023-03-31T01:59:10;14.60;99.90
44271;DHT22;29963;44.594;11.368;2023-03-31T02:01:46;14.50;99.90
44271;DHT22;29963;44.594;11.368;2023-03-31T02:04:23;14.40;99.90
44271;DHT22;29963;44.594;11.368;2023-03-31T02:06:54;14.20;99.90
44271;DHT22;29963;44.594;11.368;2023-03-31T02:09:25;14.20;99.90
44271;DHT22;29963;44.594;11.368;2023-03-31T02:11:54;14.10;99.90
44271;DHT22;29963;44.594;11.368;2023-03-31T02:14:23;13.90;99.90
44271;DHT22;29963;44.594;11.368;2023-03-31T02:16:54;13.90;99.90
44271;DHT22;29963;44.594;11.368;2023-03-31T02:19:29;13.80;99.90
44271;DHT22;29963;44.594;11.368;2023-03-31T02:21:56;13.80;99.90
44271;DHT22;29963;44.594;11.368;2023-03-31T02:24:24;13.90;99.90
44271;DHT22;29963;44.594;11.368;2023-03-31T02:26:55;13.80;99.90
44271;DHT22;29963;44.594;11.368;2023-03-31T02:29:23;13.80;99.90
44271;DHT22;29963;44.594;11.368;2023-03-31T02:32:28;13.90;99.90
44271;DHT22;29963;44.594;11.368;2023-03-31T02:34:56;13.90;99.90
44271;DHT22;29963;44.594;11.368;2023-03-31T02:37:22;13.90;99.90
44271;DHT22;29963;44.594;11.368;2023-03-31T02:39:51;13.90;99.90
44271;DHT22;29963;44.594;11.368;2023-03-31T02:42:18;13.80;99.90
44271;DHT22;29963;44.594;11.368;2023-03-31T02:44:44;13.80;99.90
44271;DHT22;29963;44.594;11.368;2023-03-31T02:47:14;13.70;99.90
44271;DHT22;29963;44.594;11.368;2023-03-31T02:49:54;13.70;99.90
44271;DHT22;29963;44.594;11.368;2023-03-31T03:06:40;13.30;99.90
44271;DHT22;29963;44.594;11.368;2023-03-31T03:15:18;13.20;99.90
44271;DHT22;29963;44.594;11.368;2023-03-31T03:17:28;13.20;99.90
44271;DHT22;29963;44.594;11.368;2023-03-31T03:19:59;13.10;99.90
44271;DHT22;29963;44.594;11.368;2023-03-31T03:22:25;13.20;99.90
44271;DHT22;29963;44.594;11.368;2023-03-31T03:24:51;13.10;99.90
44271;DHT22;29963;44.594;11.368;2023-03-31T03:27:17;13.30;99.90
44271;DHT22;29963;44.594;11.368;2023-03-31T03:29:43;13.30;99.90
44271;DHT22;29963;44.594;11.368;2023-03-31T03:32:09;13.40;99.90
44271;DHT22;29963;44.594;11.368;2023-03-31T03:34:36;13.30;99.90
44271;DHT22;29963;44.594;11.368;2023-03-31T03:37:01;13.30;99.90
44271;DHT22;29963;44.594;11.368;2023-03-31T03:39:27;13.20;99.90
44271;DHT22;29963;44.594;11.368;2023-03-31T03:41:53;13.10;99.90
44271;DHT22;29963;44.594;11.368;2023-03-31T03:44:18;13.10;99.90
44271;DHT22;29963;44.594;11.368;2023-03-31T03:46:44;13.20;99.90
44271;DHT22;29963;44.594;11.368;2023-03-31T03:49:10;13.20;99.90
44271;DHT22;29963;44.594;11.368;2023-03-31T03:51:35;13.20;99.90
44271;DHT22;29963;44.594;11.368;2023-03-31T03:54:01;13.20;99.90
44271;DHT22;29963;44.594;11.368;2023-03-31T03:56:26;13.30;99.90
44271;DHT22;29963;44.594;11.368;2023-03-31T03:58:52;13.30;99.90
44271;DHT22;29963;44.594;11.368;2023-03-31T04:01:18;13.30;99.90
44271;DHT22;29963;44.594;11.368;2023-03-31T04:03:43;13.30;99.90
44271;DHT22;29963;44.594;11.368;2023-03-31T04:06:09;13.20;99.90
44271;DHT22;29963;44.594;11.368;2023-03-31T04:08:35;13.00;99.90
44271;DHT22;29963;44.594;11.368;2023-03-31T04:11:01;13.00;99.90
44271;DHT22;29963;44.594;11.368;2023-03-31T04:13:27;13.00;99.90
44271;DHT22;29963;44.594;11.368;2023-03-31T04:15:53;13.00;99.90
44271;DHT22;29963;44.594;11.368;2023-03-31T04:18:18;12.90;99.90
44271;DHT22;29963;44.594;11.368;2023-03-31T04:20:56;12.90;99.90
44271;DHT22;29963;44.594;11.368;2023-03-31T04:23:35;13.00;99.90
44271;DHT22;29963;44.594;11.368;2023-03-31T04:26:11;13.00;99.90
44271;DHT22;29963;44.594;11.368;2023-03-31T04:28:37;13.00;99.90
44271;DHT22;29963;44.594;11.368;2023-03-31T04:31:08;12.90;99.90
44271;DHT22;29963;44.594;11.368;2023-03-31T04:33:34;12.90;99.90
44271;DHT22;29963;44.594;11.368;2023-03-31T04:36:04;12.80;99.90
44271;DHT22;29963;44.594;11.368;2023-03-31T04:38:32;12.70;99.90
44271;DHT22;29963;44.594;11.368;2023-03-31T04:41:00;12.60;99.90
44271;DHT22;29963;44.594;11.368;2023-03-31T04:43:26;12.50;99.90
44271;DHT22;29963;44.594;11.368;2023-03-31T04:45:51;12.60;99.90
44271;DHT22;29963;44.594;11.368;2023-03-31T04:48:17;12.50;99.90
44271;DHT22;29963;44.594;11.368;2023-03-31T04:50:43;12.50;99.90
44271;DHT22;29963;44.594;11.368;2023-03-31T04:53:10;12.20;99.90
44271;DHT22;29963;44.594;11.368;2023-03-31T04:55:36;11.90;99.90
44271;DHT22;29963;44.594;11.368;2023-03-31T04:58:01;11.80;99.90
44271;DHT22;29963;44.594;11.368;2023-03-31T05:00:27;11.70;99.90
44271;DHT22;29963;44.594;11.368;2023-03-31T05:02:53;11.60;99.90
44271;DHT22;29963;44.594;11.368;2023-03-31T05:05:19;11.60;99.90
44271;DHT22;29963;44.594;11.368;2023-03-31T05:07:45;11.50;99.90
44271;DHT22;29963;44.594;11.368;2023-03-31T05:10:11;11.60;99.90
44271;DHT22;29963;44.594;11.368;2023-03-31T05:12:37;11.80;99.90
44271;DHT22;29963;44.594;11.368;2023-03-31T05:15:04;11.80;99.90
44271;DHT22;29963;44.594;11.368;2023-03-31T05:17:31;11.90;99.90
44271;DHT22;29963;44.594;11.368;2023-03-31T05:19:57;11.90;99.90
44271;DHT22;29963;44.594;11.368;2023-03-31T05:22:23;11.90;99.90
44271;DHT22;29963;44.594;11.368;2023-03-31T05:24:49;11.80;99.90
44271;DHT22;29963;44.594;11.368;2023-03-31T05:27:15;11.80;99.90
44271;DHT22;29963;44.594;11.368;2023-03-31T05:29:41;11.80;99.90
44271;DHT22;29963;44.594;11.368;2023-03-31T05:32:07;11.80;99.90
44271;DHT22;29963;44.594;11.368;2023-03-31T05:34:32;11.60;99.90
44271;DHT22;29963;44.594;11.368;2023-03-31T05:36:58;11.40;99.90
44271;DHT22;29963;44.594;11.368;2023-03-31T05:39:24;11.30;99.90
44271;DHT22;29963;44.594;11.368;2023-03-31T05:41:50;11.30;99.90
44271;DHT22;29963;44.594;11.368;2023-03-31T05:44:15;11.40;99.90
44271;DHT22;29963;44.594;11.368;2023-03-31T05:46:41;11.50;99.90
44271;DHT22;29963;44.594;11.368;2023-03-31T05:49:07;11.60;99.90
44271;DHT22;29963;44.594;11.368;2023-03-31T05:51:33;11.80;99.90
44271;DHT22;29963;44.594;11.368;2023-03-31T05:53:59;11.90;99.90
44271;DHT22;29963;44.594;11.368;2023-03-31T05:56:25;12.00;99.90
44271;DHT22;29963;44.594;11.368;2023-03-31T05:58:52;11.90;99.90
44271;DHT22;29963;44.594;11.368;2023-03-31T06:01:18;11.90;99.90
44271;DHT22;29963;44.594;11.368;2023-03-31T06:03:48;12.00;99.90
44271;DHT22;29963;44.594;11.368;2023-03-31T06:06:14;11.90;99.90
44271;DHT22;29963;44.594;11.368;2023-03-31T06:08:42;11.90;99.90
44271;DHT22;29963;44.594;11.368;2023-03-31T06:11:14;11.80;99.90
44271;DHT22;29963;44.594;11.368;2023-03-31T06:13:41;11.80;99.90
44271;DHT22;29963;44.594;11.368;2023-03-31T06:16:09;11.80;99.90
44271;DHT22;29963;44.594;11.368;2023-03-31T06:18:35;11.80;99.90
44271;DHT22;29963;44.594;11.368;2023-03-31T06:21:01;11.80;99.90
44271;DHT22;29963;44.594;11.368;2023-03-31T06:23:27;11.90;99.90
44271;DHT22;29963;44.594;11.368;2023-03-31T06:25:53;11.90;99.90
44271;DHT22;29963;44.594;11.368;2023-03-31T06:28:20;11.90;99.90
44271;DHT22;29963;44.594;11.368;2023-03-31T06:30:46;12.00;99.90
44271;DHT22;29963;44.594;11.368;2023-03-31T06:33:12;11.90;99.90
44271;DHT22;29963;44.594;11.368;2023-03-31T06:35:39;11.90;99.90
44271;DHT22;29963;44.594;11.368;2023-03-31T06:38:05;12.00;99.90
44271;DHT22;29963;44.594;11.368;2023-03-31T06:40:31;12.00;99.90
44271;DHT22;29963;44.594;11.368;2023-03-31T06:42:57;12.10;99.90
44271;DHT22;29963;44.594;11.368;2023-03-31T06:45:23;12.10;99.90
44271;DHT22;29963;44.594;11.368;2023-03-31T06:47:48;12.10;99.90
44271;DHT22;29963;44.594;11.368;2023-03-31T06:50:14;12.00;99.90
44271;DHT22;29963;44.594;11.368;2023-03-31T06:52:40;12.10;99.90
44271;DHT22;29963;44.594;11.368;2023-03-31T06:55:06;12.10;99.90
44271;DHT22;29963;44.594;11.368;2023-03-31T06:57:32;12.10;99.90
44271;DHT22;29963;44.594;11.368;2023-03-31T06:59:59;12.20;99.90
44271;DHT22;29963;44.594;11.368;2023-03-31T07:02:25;12.20;99.90
44271;DHT22;29963;44.594;11.368;2023-03-31T07:04:51;12.30;99.90
44271;DHT22;29963;44.594;11.368;2023-03-31T07:07:16;12.40;99.90
44271;DHT22;29963;44.594;11.368;2023-03-31T07:09:42;12.40;99.90
44271;DHT22;29963;44.594;11.368;2023-03-31T07:12:08;12.50;99.90
44271;DHT22;29963;44.594;11.368;2023-03-31T07:14:35;12.50;99.90
44271;DHT22;29963;44.594;11.368;2023-03-31T07:17:01;12.60;99.90
44271;DHT22;29963;44.594;11.368;2023-03-31T07:19:27;12.60;99.90
44271;DHT22;29963;44.594;11.368;2023-03-31T07:21:52;12.70;99.90
44271;DHT22;29963;44.594;11.368;2023-03-31T07:24:18;12.70;99.90
44271;DHT22;29963;44.594;11.368;2023-03-31T07:26:44;12.90;99.90
44271;DHT22;29963;44.594;11.368;2023-03-31T07:29:10;12.90;99.90
44271;DHT22;29963;44.594;11.368;2023-03-31T07:31:35;13.00;99.90
44271;DHT22;29963;44.594;11.368;2023-03-31T07:34:02;13.10;99.90
44271;DHT22;29963;44.594;11.368;2023-03-31T07:36:29;13.20;99.90
44271;DHT22;29963;44.594;11.368;2023-03-31T07:38:55;13.30;99.90
44271;DHT22;29963;44.594;11.368;2023-03-31T07:41:22;13.40;99.90
44271;DHT22;29963;44.594;11.368;2023-03-31T07:43:48;13.40;99.90
44271;DHT22;29963;44.594;11.368;2023-03-31T07:46:24;13.50;99.90
44271;DHT22;29963;44.594;11.368;2023-03-31T07:48:50;13.50;99.90
44271;DHT22;29963;44.594;11.368;2023-03-31T07:51:18;13.70;99.90
44271;DHT22;29963;44.594;11.368;2023-03-31T07:53:45;13.80;99.90
44271;DHT22;29963;44.594;11.368;2023-03-31T07:56:11;13.90;99.90
44271;DHT22;29963;44.594;11.368;2023-03-31T07:58:36;14.00;99.90
44271;DHT22;29963;44.594;11.368;2023-03-31T08:01:03;14.20;99.90
44271;DHT22;29963;44.594;11.368;2023-03-31T08:03:29;14.30;99.90
44271;DHT22;29963;44.594;11.368;2023-03-31T08:05:56;14.30;99.90
44271;DHT22;29963;44.594;11.368;2023-03-31T08:08:22;14.50;99.90
44271;DHT22;29963;44.594;11.368;2023-03-31T08:10:48;14.70;99.90
44271;DHT22;29963;44.594;11.368;2023-03-31T08:13:14;14.80;99.90
44271;DHT22;29963;44.594;11.368;2023-03-31T08:15:39;14.90;99.90
44271;DHT22;29963;44.594;11.368;2023-03-31T08:18:05;15.10;99.90
44271;DHT22;29963;44.594;11.368;2023-03-31T08:20:31;15.20;99.90
44271;DHT22;29963;44.594;11.368;2023-03-31T08:22:57;15.30;99.90
44271;DHT22;29963;44.594;11.368;2023-03-31T08:25:22;15.40;99.90
44271;DHT22;29963;44.594;11.368;2023-03-31T08:27:48;15.40;99.90
44271;DHT22;29963;44.594;11.368;2023-03-31T08:30:16;15.40;99.90
44271;DHT22;29963;44.594;11.368;2023-03-31T08:32:42;15.50;99.90
44271;DHT22;29963;44.594;11.368;2023-03-31T08:35:09;15.60;99.90
44271;DHT22;29963;44.594;11.368;2023-03-31T08:37:35;15.70;99.90
44271;DHT22;29963;44.594;11.368;2023-03-31T08:40:03;15.80;99.90
44271;DHT22;29963;44.594;11.368;2023-03-31T08:42:49;15.80;99.90
44271;DHT22;29963;44.594;11.368;2023-03-31T08:47:51;16.00;99.90
44271;DHT22;29963;44.594;11.368;2023-03-31T08:50:24;16.10;99.90
44271;DHT22;29963;44.594;11.368;2023-03-31T08:55:26;16.20;99.90
44271;DHT22;29963;44.594;11.368;2023-03-31T08:58:08;16.30;99.90
44271;DHT22;29963;44.594;11.368;2023-03-31T09:00:50;16.30;99.90
44271;DHT22;29963;44.594;11.368;2023-03-31T09:03:41;16.40;99.90
44271;DHT22;29963;44.594;11.368;2023-03-31T09:09:26;16.50;99.90
44271;DHT22;29963;44.594;11.368;2023-03-31T09:12:01;16.60;99.90
44271;DHT22;29963;44.594;11.368;2023-03-31T09:19:47;16.70;99.90
44271;DHT22;29963;44.594;11.368;2023-03-31T09:22:25;16.80;99.90
44271;DHT22;29963;44.594;11.368;2023-03-31T09:25:00;16.80;99.90
44271;DHT22;29963;44.594;11.368;2023-03-31T09:27:29;16.90;99.90
44271;DHT22;29963;44.594;11.368;2023-03-31T09:30:28;17.00;99.90
44271;DHT22;29963;44.594;11.368;2023-03-31T09:33:22;17.00;99.90
44271;DHT22;29963;44.594;11.368;2023-03-31T09:35:51;17.00;99.90
44271;DHT22;29963;44.594;11.368;2023-03-31T09:38:17;17.20;99.90
44271;DHT22;29963;44.594;11.368;2023-03-31T09:40:43;17.30;99.90
44271;DHT22;29963;44.594;11.368;2023-03-31T09:43:23;17.30;99.90
44271;DHT22;29963;44.594;11.368;2023-03-31T09:45:49;17.40;99.90
44271;DHT22;29963;44.594;11.368;2023-03-31T09:48:18;17.40;99.90
44271;DHT22;29963;44.594;11.368;2023-03-31T09:50:48;17.40;99.90
44271;DHT22;29963;44.594;11.368;2023-03-31T09:55:52;17.60;99.90
44271;DHT22;29963;44.594;11.368;2023-03-31T09:58:18;17.60;99.90
44271;DHT22;29963;44.594;11.368;2023-03-31T10:01:05;17.60;99.90
44271;DHT22;29963;44.594;11.368;2023-03-31T10:03:31;17.60;99.90
44271;DHT22;29963;44.594;11.368;2023-03-31T10:06:13;17.70;99.90
44271;DHT22;29963;44.594;11.368;2023-03-31T10:08:58;17.70;99.90
44271;DHT22;29963;44.594;11.368;2023-03-31T10:11:24;17.70;99.90
44271;DHT22;29963;44.594;11.368;2023-03-31T10:16:31;17.80;99.90
44271;DHT22;29963;44.594;11.368;2023-03-31T10:19:21;17.90;99.90
44271;DHT22;29963;44.594;11.368;2023-03-31T10:21:58;18.00;99.90
44271;DHT22;29963;44.594;11.368;2023-03-31T10:24:24;18.20;99.90
44271;DHT22;29963;44.594;11.368;2023-03-31T10:26:53;18.20;99.90
44271;DHT22;29963;44.594;11.368;2023-03-31T10:29:30;18.30;99.90
44271;DHT22;29963;44.594;11.368;2023-03-31T10:32:08;18.40;99.90
44271;DHT22;29963;44.594;11.368;2023-03-31T10:34:36;18.50;99.90
44271;DHT22;29963;44.594;11.368;2023-03-31T10:37:05;18.70;99.90
44271;DHT22;29963;44.594;11.368;2023-03-31T10:39:32;18.80;99.90
44271;DHT22;29963;44.594;11.368;2023-03-31T10:41:58;18.80;99.90
44271;DHT22;29963;44.594;11.368;2023-03-31T10:44:36;18.90;99.90
44271;DHT22;29963;44.594;11.368;2023-03-31T10:49:42;19.00;99.90
44271;DHT22;29963;44.594;11.368;2023-03-31T10:52:22;19.00;99.90
44271;DHT22;29963;44.594;11.368;2023-03-31T10:54:55;19.10;99.90
44271;DHT22;29963;44.594;11.368;2023-03-31T10:57:49;19.10;99.90
44271;DHT22;29963;44.594;11.368;2023-03-31T11:00:23;19.10;99.90
44271;DHT22;29963;44.594;11.368;2023-03-31T11:05:42;19.20;99.90
44271;DHT22;29963;44.594;11.368;2023-03-31T11:08:34;19.20;99.90
44271;DHT22;29963;44.594;11.368;2023-03-31T11:11:41;19.30;99.90
44271;DHT22;29963;44.594;11.368;2023-03-31T11:22:50;19.60;99.90
44271;DHT22;29963;44.594;11.368;2023-03-31T11:34:06;19.80;99.90
44271;DHT22;29963;44.594;11.368;2023-03-31T11:42:30;19.90;99.90
44271;DHT22;29963;44.594;11.368;2023-03-31T11:45:20;19.90;99.90
44271;DHT22;29963;44.594;11.368;2023-03-31T11:47:51;19.90;99.90
44271;DHT22;29963;44.594;11.368;2023-03-31T11:50:25;19.90;99.90
44271;DHT22;29963;44.594;11.368;2023-03-31T11:53:26;19.90;99.90
44271;DHT22;29963;44.594;11.368;2023-03-31T11:56:00;19.90;99.90
44271;DHT22;29963;44.594;11.368;2023-03-31T12:01:19;19.60;99.90
44271;DHT22;29963;44.594;11.368;2023-03-31T12:06:21;19.50;99.90
44271;DHT22;29963;44.594;11.368;2023-03-31T12:09:10;19.50;99.90
44271;DHT22;29963;44.594;11.368;2023-03-31T12:14:29;19.50;99.90
44271;DHT22;29963;44.594;11.368;2023-03-31T12:17:03;19.50;99.90
44271;DHT22;29963;44.594;11.368;2023-03-31T12:27:58;19.80;99.90
44271;DHT22;29963;44.594;11.368;2023-03-31T12:30:31;19.90;99.90
44271;DHT22;29963;44.594;11.368;2023-03-31T12:33:19;19.90;99.90
44271;DHT22;29963;44.594;11.368;2023-03-31T12:39:18;20.00;99.90
44271;DHT22;29963;44.594;11.368;2023-03-31T13:35:16;21.10;99.90
44271;DHT22;29963;44.594;11.368;2023-03-31T14:00:36;22.30;98.90
44271;DHT22;29963;44.594;11.368;2023-03-31T14:06:05;21.80;98.60
44271;DHT22;29963;44.594;11.368;2023-03-31T14:08:57;21.60;98.30
44271;DHT22;29963;44.594;11.368;2023-03-31T14:11:27;21.40;98.60
44271;DHT22;29963;44.594;11.368;2023-03-31T14:14:13;21.20;97.90
44271;DHT22;29963;44.594;11.368;2023-03-31T14:16:51;20.90;98.20
44271;DHT22;29963;44.594;11.368;2023-03-31T14:22:24;20.60;98.50
44271;DHT22;29963;44.594;11.368;2023-03-31T14:25:43;20.60;98.80
44271;DHT22;29963;44.594;11.368;2023-03-31T14:30:38;20.70;99.30
44271;DHT22;29963;44.594;11.368;2023-03-31T14:38:46;20.50;99.30
44271;DHT22;29963;44.594;11.368;2023-03-31T14:41:19;20.50;98.80
44271;DHT22;29963;44.594;11.368;2023-03-31T14:43:49;20.60;99.00
44271;DHT22;29963;44.594;11.368;2023-03-31T14:46:20;20.60;98.80
44271;DHT22;29963;44.594;11.368;2023-03-31T14:48:48;20.50;98.70
44271;DHT22;29963;44.594;11.368;2023-03-31T14:51:16;20.50;99.20
44271;DHT22;29963;44.594;11.368;2023-03-31T14:53:42;20.50;99.20
44271;DHT22;29963;44.594;11.368;2023-03-31T14:56:20;20.60;98.70
44271;DHT22;29963;44.594;11.368;2023-03-31T14:58:49;21.20;99.10
44271;DHT22;29963;44.594;11.368;2023-03-31T15:01:28;22.30;96.80
44271;DHT22;29963;44.594;11.368;2023-03-31T15:03:55;23.40;95.90
44271;DHT22;29963;44.594;11.368;2023-03-31T15:06:24;24.40;94.30
44271;DHT22;29963;44.594;11.368;2023-03-31T15:08:52;25.50;92.80
44271;DHT22;29963;44.594;11.368;2023-03-31T15:11:19;26.30;91.20
44271;DHT22;29963;44.594;11.368;2023-03-31T15:13:48;27.20;89.10
44271;DHT22;29963;44.594;11.368;2023-03-31T15:16:39;27.40;86.30
44271;DHT22;29963;44.594;11.368;2023-03-31T15:19:19;27.90;83.20
44271;DHT22;29963;44.594;11.368;2023-03-31T15:21:52;28.50;81.00
44271;DHT22;29963;44.594;11.368;2023-03-31T15:24:19;28.80;78.30
44271;DHT22;29963;44.594;11.368;2023-03-31T15:27:02;29.10;77.60
44271;DHT22;29963;44.594;11.368;2023-03-31T15:29:47;29.30;76.20
44271;DHT22;29963;44.594;11.368;2023-03-31T15:32:24;29.20;74.30
44271;DHT22;29963;44.594;11.368;2023-03-31T15:34:51;29.00;74.70
44271;DHT22;29963;44.594;11.368;2023-03-31T15:37:38;28.90;75.10
44271;DHT22;29963;44.594;11.368;2023-03-31T15:40:20;28.40;74.40
44271;DHT22;29963;44.594;11.368;2023-03-31T15:42:48;27.70;75.30
44271;DHT22;29963;44.594;11.368;2023-03-31T15:48:02;27.10;76.40
44271;DHT22;29963;44.594;11.368;2023-03-31T15:50:28;26.10;77.30
44271;DHT22;29963;44.594;11.368;2023-03-31T15:52:54;24.90;80.30
44271;DHT22;29963;44.594;11.368;2023-03-31T15:57:48;24.00;85.00
44271;DHT22;29963;44.594;11.368;2023-03-31T16:00:52;23.70;85.70
44271;DHT22;29963;44.594;11.368;2023-03-31T16:03:25;23.00;88.10
44271;DHT22;29963;44.594;11.368;2023-03-31T16:06:02;22.40;90.00
44271;DHT22;29963;44.594;11.368;2023-03-31T16:08:42;22.10;91.00
44271;DHT22;29963;44.594;11.368;2023-03-31T16:11:12;22.00;91.60
44271;DHT22;29963;44.594;11.368;2023-03-31T16:13:42;21.80;91.70
44271;DHT22;29963;44.594;11.368;2023-03-31T16:16:17;21.70;92.00
44271;DHT22;29963;44.594;11.368;2023-03-31T16:18:47;21.60;92.40
44271;DHT22;29963;44.594;11.368;2023-03-31T16:21:20;21.50;92.60
44271;DHT22;29963;44.594;11.368;2023-03-31T16:23:53;21.40;93.20
44271;DHT22;29963;44.594;11.368;2023-03-31T16:26:22;21.40;93.30
44271;DHT22;29963;44.594;11.368;2023-03-31T16:28:53;21.30;93.70
44271;DHT22;29963;44.594;11.368;2023-03-31T16:31:32;21.20;94.10
44271;DHT22;29963;44.594;11.368;2023-03-31T16:34:03;21.20;94.20
44271;DHT22;29963;44.594;11.368;2023-03-31T16:36:29;21.40;94.20
44271;DHT22;29963;44.594;11.368;2023-03-31T16:38:55;21.60;94.20
44271;DHT22;29963;44.594;11.368;2023-03-31T16:41:25;22.00;93.90
44271;DHT22;29963;44.594;11.368;2023-03-31T16:43:52;22.50;93.40
44271;DHT22;29963;44.594;11.368;2023-03-31T16:46:19;22.80;91.30
44271;DHT22;29963;44.594;11.368;2023-03-31T16:48:46;23.00;90.90
44271;DHT22;29963;44.594;11.368;2023-03-31T16:51:12;23.20;90.30
44271;DHT22;29963;44.594;11.368;2023-03-31T16:53:38;23.10;89.40
44271;DHT22;29963;44.594;11.368;2023-03-31T16:56:06;22.70;90.00
44271;DHT22;29963;44.594;11.368;2023-03-31T16:58:35;22.50;90.60
44271;DHT22;29963;44.594;11.368;2023-03-31T17:01:01;22.10;91.00
44271;DHT22;29963;44.594;11.368;2023-03-31T17:03:28;21.80;91.70
44271;DHT22;29963;44.594;11.368;2023-03-31T17:05:56;21.50;91.80
44271;DHT22;29963;44.594;11.368;2023-03-31T17:08:23;21.10;92.10
44271;DHT22;29963;44.594;11.368;2023-03-31T17:10:51;20.90;92.50
44271;DHT22;29963;44.594;11.368;2023-03-31T17:13:18;20.60;92.80
44271;DHT22;29963;44.594;11.368;2023-03-31T17:15:43;20.40;93.30
44271;DHT22;29963;44.594;11.368;2023-03-31T17:18:09;20.20;93.80
44271;DHT22;29963;44.594;11.368;2023-03-31T17:20:35;20.00;94.60
44271;DHT22;29963;44.594;11.368;2023-03-31T17:23:01;19.80;94.90
44271;DHT22;29963;44.594;11.368;2023-03-31T17:25:27;19.60;95.30
44271;DHT22;29963;44.594;11.368;2023-03-31T17:27:52;19.40;95.60
44271;DHT22;29963;44.594;11.368;2023-03-31T17:30:20;19.30;96.00
44271;DHT22;29963;44.594;11.368;2023-03-31T17:32:46;19.20;96.10
44271;DHT22;29963;44.594;11.368;2023-03-31T17:35:12;19.20;96.40
44271;DHT22;29963;44.594;11.368;2023-03-31T17:37:45;19.00;96.40
44271;DHT22;29963;44.594;11.368;2023-03-31T17:40:11;19.00;96.60
44271;DHT22;29963;44.594;11.368;2023-03-31T17:42:37;19.00;96.60
44271;DHT22;29963;44.594;11.368;2023-03-31T17:45:03;19.10;96.80
44271;DHT22;29963;44.594;11.368;2023-03-31T17:47:30;19.10;96.60
44271;DHT22;29963;44.594;11.368;2023-03-31T17:49:56;19.10;96.80
44271;DHT22;29963;44.594;11.368;2023-03-31T17:52:23;19.10;96.70
44271;DHT22;29963;44.594;11.368;2023-03-31T17:54:49;19.00;96.90
44271;DHT22;29963;44.594;11.368;2023-03-31T17:57:15;19.10;96.50
44271;DHT22;29963;44.594;11.368;2023-03-31T17:59:41;19.10;96.40
44271;DHT22;29963;44.594;11.368;2023-03-31T18:02:11;19.00;96.50
44271;DHT22;29963;44.594;11.368;2023-03-31T18:04:37;19.00;96.70
44271;DHT22;29963;44.594;11.368;2023-03-31T18:07:03;19.00;96.70
44271;DHT22;29963;44.594;11.368;2023-03-31T18:09:28;19.00;97.10
44271;DHT22;29963;44.594;11.368;2023-03-31T18:11:54;19.00;96.80
44271;DHT22;29963;44.594;11.368;2023-03-31T18:14:19;19.00;97.10
44271;DHT22;29963;44.594;11.368;2023-03-31T18:16:45;19.00;97.10
44271;DHT22;29963;44.594;11.368;2023-03-31T18:19:11;19.00;97.20
44271;DHT22;29963;44.594;11.368;2023-03-31T18:21:37;18.90;97.00
44271;DHT22;29963;44.594;11.368;2023-03-31T18:24:02;18.80;96.90
44271;DHT22;29963;44.594;11.368;2023-03-31T18:26:28;18.80;97.00
44271;DHT22;29963;44.594;11.368;2023-03-31T18:28:54;18.70;97.10
44271;DHT22;29963;44.594;11.368;2023-03-31T18:31:19;18.70;97.50
44271;DHT22;29963;44.594;11.368;2023-03-31T18:33:46;18.70;97.60
44271;DHT22;29963;44.594;11.368;2023-03-31T18:36:15;18.60;97.40
44271;DHT22;29963;44.594;11.368;2023-03-31T18:38:42;18.60;98.00
44271;DHT22;29963;44.594;11.368;2023-03-31T18:41:07;18.60;97.80
44271;DHT22;29963;44.594;11.368;2023-03-31T18:43:34;18.50;98.10
44271;DHT22;29963;44.594;11.368;2023-03-31T18:45:59;18.40;98.70
44271;DHT22;29963;44.594;11.368;2023-03-31T18:48:26;18.40;99.30
44271;DHT22;29963;44.594;11.368;2023-03-31T18:50:52;18.40;99.70
44271;DHT22;29963;44.594;11.368;2023-03-31T18:53:19;18.30;99.90
44271;DHT22;29963;44.594;11.368;2023-03-31T18:55:52;18.30;99.90
44271;DHT22;29963;44.594;11.368;2023-03-31T18:58:18;18.30;99.90
44271;DHT22;29963;44.594;11.368;2023-03-31T19:00:44;18.30;99.90
44271;DHT22;29963;44.594;11.368;2023-03-31T19:03:10;18.20;99.90
44271;DHT22;29963;44.594;11.368;2023-03-31T19:05:36;18.00;99.90
44271;DHT22;29963;44.594;11.368;2023-03-31T19:08:02;17.90;99.90